createdAt,value
2022-11-25T00:01:33.736Z,4.70
2022-11-25T00:04:02.612Z,4.73
2022-11-25T00:06:34.050Z,4.78
2022-11-25T00:09:04.936Z,4.84
2022-11-25T00:11:37.890Z,4.81
2022-11-25T00:14:08.715Z,4.81
2022-11-25T00:16:37.062Z,4.83
2022-11-25T00:19:05.944Z,4.83
2022-11-25T00:21:36.010Z,4.78
2022-11-25T00:24:07.044Z,4.78
2022-11-25T00:26:37.521Z,4.74
2022-11-25T00:29:08.498Z,4.66
2022-11-25T00:31:39.265Z,4.62
2022-11-25T00:34:08.546Z,4.53
2022-11-25T00:36:39.988Z,4.49
2022-11-25T00:39:10.784Z,4.44
2022-11-25T00:41:56.756Z,4.40
2022-11-25T00:44:38.981Z,4.37
2022-11-25T00:47:11.838Z,4.35
2022-11-25T00:49:42.332Z,4.31
2022-11-25T00:52:16.341Z,4.32
2022-11-25T00:54:45.955Z,4.32
2022-11-25T00:57:14.932Z,4.33
2022-11-25T00:59:43.628Z,4.33
2022-11-25T01:02:13.627Z,4.33
2022-11-25T01:04:42.297Z,4.33
2022-11-25T01:07:12.223Z,4.35
2022-11-25T01:09:41.197Z,4.34
2022-11-25T01:12:09.665Z,4.34
2022-11-25T01:14:38.590Z,4.33
2022-11-25T01:17:07.869Z,4.31
2022-11-25T01:19:40.274Z,4.29
2022-11-25T01:22:08.948Z,4.28
2022-11-25T01:24:39.272Z,4.25
2022-11-25T01:27:08.111Z,4.23
2022-11-25T01:29:36.588Z,4.21
2022-11-25T01:32:04.980Z,4.20
2022-11-25T01:34:34.823Z,4.15
2022-11-25T01:37:03.303Z,4.14
2022-11-25T01:39:33.072Z,4.11
2022-11-25T01:42:04.267Z,4.08
2022-11-25T01:44:34.907Z,4.09
2022-11-25T01:47:06.701Z,4.07
2022-11-25T01:49:40.815Z,4.09
2022-11-25T01:52:15.522Z,4.05
2022-11-25T01:54:51.961Z,4.08
2022-11-25T01:57:26.215Z,4.07
2022-11-25T01:59:59.254Z,4.10
2022-11-25T02:02:28.471Z,4.08
2022-11-25T02:04:58.148Z,4.05
2022-11-25T02:07:33.281Z,4.05
2022-11-25T02:10:03.395Z,4.02
2022-11-25T02:12:33.967Z,3.98
2022-11-25T02:15:02.334Z,3.96
2022-11-25T02:17:31.231Z,3.92
2022-11-25T02:20:04.572Z,3.90
2022-11-25T02:22:46.691Z,3.84
2022-11-25T02:25:21.874Z,3.83
2022-11-25T02:27:53.957Z,3.78
2022-11-25T02:30:22.705Z,3.76
2022-11-25T02:32:51.943Z,3.75
2022-11-25T02:35:32.632Z,3.70
2022-11-25T02:38:06.404Z,3.66
2022-11-25T02:40:42.148Z,3.66
2022-11-25T02:43:11.366Z,3.64
2022-11-25T02:45:54.085Z,3.62
2022-11-25T02:48:39.725Z,3.60
2022-11-25T02:51:13.674Z,3.60
2022-11-25T02:53:42.174Z,3.58
2022-11-25T02:56:14.158Z,3.57
2022-11-25T02:58:43.592Z,3.57
2022-11-25T03:01:12.185Z,3.58
2022-11-25T03:03:40.641Z,3.59
2022-11-25T03:06:10.113Z,3.59
2022-11-25T03:08:39.553Z,3.53
2022-11-25T03:11:12.689Z,3.50
2022-11-25T03:13:42.668Z,3.45
2022-11-25T03:16:11.782Z,3.42
2022-11-25T03:18:40.537Z,3.37
2022-11-25T03:21:08.868Z,3.33
2022-11-25T03:23:37.252Z,3.34
2022-11-25T03:26:07.398Z,3.36
2022-11-25T03:28:37.583Z,3.35
2022-11-25T03:31:06.436Z,3.33
2022-11-25T03:33:37.712Z,3.32
2022-11-25T03:36:08.177Z,3.33
2022-11-25T03:38:36.690Z,3.33
2022-11-25T03:41:05.228Z,3.35
2022-11-25T03:43:35.810Z,3.36
2022-11-25T03:46:06.739Z,3.37
2022-11-25T03:48:35.308Z,3.37
2022-11-25T03:51:03.889Z,3.39
2022-11-25T03:53:32.557Z,3.43
2022-11-25T03:56:03.539Z,3.46
2022-11-25T03:58:32.692Z,3.49
2022-11-25T04:01:02.682Z,3.51
2022-11-25T04:03:33.618Z,3.52
2022-11-25T04:06:02.715Z,3.51
2022-11-25T04:08:32.218Z,3.52
2022-11-25T04:11:01.233Z,3.56
2022-11-25T04:13:32.600Z,3.58
2022-11-25T04:16:01.194Z,3.64
2022-11-25T04:18:29.462Z,3.67
2022-11-25T04:21:01.392Z,3.71
2022-11-25T04:23:30.005Z,3.76
2022-11-25T04:26:02.742Z,3.81
2022-11-25T04:28:40.903Z,3.83
2022-11-25T04:31:10.674Z,3.90
2022-11-25T04:33:42.617Z,3.95
2022-11-25T04:36:13.062Z,3.95
2022-11-25T04:38:41.558Z,3.88
2022-11-25T04:41:10.415Z,3.87
2022-11-25T04:43:43.854Z,3.83
2022-11-25T04:46:18.440Z,3.83
2022-11-25T04:48:52.661Z,3.81
2022-11-25T04:51:23.688Z,3.78
2022-11-25T04:53:58.057Z,3.77
2022-11-25T04:56:27.427Z,3.73
2022-11-25T04:59:14.471Z,3.73
2022-11-25T05:01:46.813Z,3.69
2022-11-25T05:04:35.860Z,3.69
2022-11-25T05:07:06.211Z,3.66
2022-11-25T05:09:35.099Z,3.69
2022-11-25T05:12:17.535Z,3.71
2022-11-25T05:14:46.475Z,3.74
2022-11-25T05:17:16.423Z,3.72
2022-11-25T05:19:46.216Z,3.72
2022-11-25T05:22:19.572Z,3.72
2022-11-25T05:24:48.214Z,3.72
2022-11-25T05:27:18.058Z,3.73
2022-11-25T05:29:51.400Z,3.76
2022-11-25T05:32:22.840Z,3.80
2022-11-25T05:34:51.460Z,3.83
2022-11-25T05:37:24.532Z,3.84
2022-11-25T05:40:00.340Z,3.86
2022-11-25T05:42:51.526Z,3.86
2022-11-25T05:45:21.086Z,3.86
2022-11-25T05:47:50.353Z,3.87
2022-11-25T05:50:23.102Z,3.89
2022-11-25T05:53:06.087Z,3.92
2022-11-25T05:55:36.624Z,3.95
2022-11-25T05:58:09.691Z,3.97
2022-11-25T06:00:38.125Z,4.03
2022-11-25T06:03:11.437Z,4.10
2022-11-25T06:05:41.317Z,4.11
2022-11-25T06:08:11.252Z,4.12
2022-11-25T06:10:40.689Z,4.12
2022-11-25T06:13:09.666Z,4.17
2022-11-25T06:15:43.171Z,4.17
2022-11-25T06:18:14.220Z,4.18
2022-11-25T06:20:42.885Z,4.18
2022-11-25T06:23:13.221Z,4.17
2022-11-25T06:25:41.979Z,4.19
2022-11-25T06:28:13.650Z,4.17
2022-11-25T06:30:46.916Z,4.23
2022-11-25T06:33:22.258Z,4.29
2022-11-25T06:35:51.359Z,4.29
2022-11-25T06:38:21.087Z,4.33
2022-11-25T06:40:49.863Z,4.32
2022-11-25T06:43:18.091Z,4.32
2022-11-25T06:45:46.234Z,4.29
2022-11-25T06:48:14.618Z,4.31
2022-11-25T06:50:43.224Z,4.31
2022-11-25T06:53:12.142Z,4.30
2022-11-25T06:55:41.945Z,4.29
2022-11-25T06:58:34.309Z,4.27
2022-11-25T07:01:02.639Z,4.27
2022-11-25T07:03:31.230Z,4.29
2022-11-25T07:05:59.710Z,4.27
2022-11-25T07:08:32.423Z,4.26
2022-11-25T07:11:09.466Z,4.21
2022-11-25T07:13:37.801Z,4.22
2022-11-25T07:16:08.299Z,4.14
2022-11-25T07:18:38.998Z,4.07
2022-11-25T07:21:09.491Z,3.98
2022-11-25T07:23:39.186Z,3.87
2022-11-25T07:26:10.865Z,3.84
2022-11-25T07:28:40.495Z,3.80
2022-11-25T07:34:01.803Z,3.73
2022-11-25T07:36:32.289Z,3.74
2022-11-25T07:39:03.186Z,3.74
2022-11-25T07:41:34.139Z,3.77
2022-11-25T07:44:04.379Z,3.82
2022-11-25T07:46:45.434Z,3.85
2022-11-25T07:49:17.424Z,3.87
2022-11-25T07:51:50.531Z,3.90
2022-11-25T07:54:18.909Z,3.94
2022-11-25T07:56:49.897Z,3.96
2022-11-25T07:59:19.899Z,3.98
2022-11-25T08:01:50.800Z,3.98
2022-11-25T08:04:20.724Z,4.02
2022-11-25T08:06:51.044Z,4.04
2022-11-25T08:09:21.415Z,4.04
2022-11-25T08:11:51.632Z,4.06
2022-11-25T08:14:21.590Z,4.04
2022-11-25T08:16:50.057Z,4.08
2022-11-25T08:19:18.948Z,4.11
2022-11-25T08:21:48.567Z,4.14
2022-11-25T08:24:17.903Z,4.16
2022-11-25T08:26:46.626Z,4.17
2022-11-25T08:29:18.172Z,4.17
2022-11-25T08:31:46.798Z,4.18
2022-11-25T08:34:20.205Z,4.18
2022-11-25T08:36:50.176Z,4.21
2022-11-25T08:42:09.260Z,4.26
2022-11-25T08:44:38.999Z,4.26
2022-11-25T08:47:07.402Z,4.29
2022-11-25T08:49:40.802Z,4.36
2022-11-25T08:52:10.566Z,4.41
2022-11-25T08:54:39.708Z,4.47
2022-11-25T08:57:08.799Z,4.51
2022-11-25T08:59:39.322Z,4.63
2022-11-25T09:02:10.031Z,4.74
2022-11-25T09:04:38.595Z,4.81
2022-11-25T09:07:07.010Z,4.89
2022-11-25T09:09:36.041Z,4.99
2022-11-25T09:12:05.176Z,5.10
2022-11-25T09:14:33.679Z,5.19
2022-11-25T09:17:03.925Z,5.27
2022-11-25T09:19:32.854Z,5.36
2022-11-25T09:22:01.137Z,5.42
2022-11-25T09:24:29.516Z,5.47
2022-11-25T09:26:58.387Z,5.55
2022-11-25T09:29:27.897Z,5.62
2022-11-25T09:31:56.399Z,5.72
2022-11-25T09:34:26.478Z,5.83
2022-11-25T09:36:54.886Z,5.99
2022-11-25T09:39:28.255Z,6.15
2022-11-25T09:42:26.709Z,6.38
2022-11-25T09:45:25.626Z,6.72
2022-11-25T09:48:08.283Z,7.09
2022-11-25T09:50:50.547Z,7.47
2022-11-25T09:53:32.923Z,7.77
2022-11-25T09:56:05.977Z,8.09
2022-11-25T09:58:38.506Z,8.21
2022-11-25T10:01:09.213Z,8.12
2022-11-25T10:03:42.571Z,8.10
2022-11-25T10:06:18.181Z,7.97
2022-11-25T10:08:51.317Z,7.91
2022-11-25T10:11:29.759Z,7.86
2022-11-25T10:14:04.717Z,7.94
2022-11-25T10:16:40.822Z,8.12
2022-11-25T10:19:20.235Z,8.26
2022-11-25T10:21:50.642Z,8.34
2022-11-25T10:24:21.534Z,8.32
2022-11-25T10:26:57.268Z,8.50
2022-11-25T10:29:29.037Z,8.65
2022-11-25T10:32:05.781Z,8.63
2022-11-25T10:34:42.168Z,8.65
2022-11-25T10:37:19.375Z,8.87
2022-11-25T10:39:48.389Z,9.15
2022-11-25T10:42:22.335Z,9.19
2022-11-25T10:44:51.197Z,9.16
2022-11-25T10:47:33.596Z,9.35
2022-11-25T10:50:14.651Z,9.73
2022-11-25T10:52:52.427Z,10.07
2022-11-25T10:55:24.317Z,10.41
2022-11-25T10:57:53.170Z,10.61
2022-11-25T11:00:33.718Z,10.76
2022-11-25T11:03:14.961Z,10.81
2022-11-25T11:05:49.941Z,11.04
2022-11-25T11:08:22.588Z,11.38
2022-11-25T11:11:17.235Z,11.65
2022-11-25T11:13:47.063Z,11.89
2022-11-25T11:16:31.490Z,11.99
2022-11-25T11:19:00.503Z,12.10
2022-11-25T11:21:33.259Z,12.30
2022-11-25T11:24:04.237Z,12.40
2022-11-25T11:26:34.721Z,12.55
2022-11-25T11:29:09.838Z,12.73
2022-11-25T11:31:48.008Z,12.60
2022-11-25T11:34:48.263Z,12.67
2022-11-25T11:37:31.302Z,12.76
2022-11-25T11:40:16.545Z,12.83
2022-11-25T11:42:59.094Z,12.85
2022-11-25T11:45:43.722Z,13.12
2022-11-25T11:48:21.671Z,13.14
2022-11-25T11:50:52.538Z,13.16
2022-11-25T11:53:27.293Z,13.08
2022-11-25T11:56:34.886Z,13.16
2022-11-25T11:59:06.470Z,12.86
2022-11-25T12:01:48.689Z,12.88
2022-11-25T12:04:22.995Z,13.03
2022-11-25T12:07:03.043Z,13.14
2022-11-25T12:09:33.986Z,13.23
2022-11-25T12:12:07.595Z,12.84
2022-11-25T12:14:43.088Z,12.56
2022-11-25T12:17:17.202Z,12.10
2022-11-25T12:19:54.340Z,11.73
2022-11-25T12:22:28.217Z,11.74
2022-11-25T12:25:08.930Z,11.90
2022-11-25T12:27:43.468Z,11.94
2022-11-25T12:30:14.948Z,12.05
2022-11-25T12:32:58.401Z,12.31
2022-11-25T12:35:39.300Z,12.20
2022-11-25T12:38:19.859Z,12.20
2022-11-25T12:40:54.510Z,12.17
2022-11-25T12:43:34.955Z,12.06
2022-11-25T12:46:14.566Z,11.89
2022-11-25T12:48:44.408Z,11.63
2022-11-25T12:51:25.860Z,11.40
2022-11-25T12:54:08.120Z,11.40
2022-11-25T12:56:53.465Z,11.12
2022-11-25T12:59:44.471Z,10.78
2022-11-25T13:02:36.254Z,10.64
2022-11-25T13:05:43.425Z,10.38
2022-11-25T13:08:23.171Z,10.33
2022-11-25T13:11:06.833Z,10.25
2022-11-25T13:13:48.468Z,10.19
2022-11-25T13:16:21.050Z,10.15
2022-11-25T13:18:51.256Z,10.10
2022-11-25T13:21:21.472Z,10.09
2022-11-25T13:23:53.323Z,9.96
2022-11-25T13:26:50.495Z,10.06
2022-11-25T13:29:56.310Z,10.06
2022-11-25T13:32:43.427Z,10.06
2022-11-25T13:35:37.283Z,9.94
2022-11-25T13:38:37.096Z,9.93
2022-11-25T13:41:24.278Z,9.81
2022-11-25T13:44:06.831Z,9.75
2022-11-25T13:46:41.082Z,9.71
2022-11-25T13:49:26.229Z,9.64
2022-11-25T13:51:57.018Z,9.63
2022-11-25T13:54:33.091Z,9.63
2022-11-25T13:57:19.834Z,9.63
2022-11-25T13:59:54.393Z,9.62
2022-11-25T14:02:33.889Z,9.55
2022-11-25T14:05:16.961Z,9.50
2022-11-25T14:07:53.066Z,9.40
2022-11-25T14:10:36.478Z,9.44
2022-11-25T14:13:21.833Z,9.36
2022-11-25T14:16:14.940Z,9.27
2022-11-25T14:19:43.349Z,9.28
2022-11-25T14:22:07.957Z,9.15
2022-11-25T14:24:41.054Z,9.20
2022-11-25T14:27:17.316Z,9.15
2022-11-25T14:29:52.487Z,9.16
2022-11-25T14:32:24.181Z,9.15
2022-11-25T14:34:59.454Z,9.10
2022-11-25T14:37:36.939Z,9.09
2022-11-25T14:40:09.666Z,9.01
2022-11-25T14:42:41.105Z,9.03
2022-11-25T14:45:22.641Z,9.02
2022-11-25T14:47:51.244Z,9.05
2022-11-25T14:50:34.737Z,9.08
2022-11-25T14:53:09.435Z,9.07
2022-11-25T14:55:39.026Z,9.12
2022-11-25T14:58:07.602Z,9.12
2022-11-25T15:00:36.167Z,9.11
2022-11-25T15:03:06.663Z,9.11
2022-11-25T15:05:36.547Z,9.19
2022-11-25T15:08:14.561Z,9.18
2022-11-25T15:10:51.061Z,9.22
2022-11-25T15:13:30.964Z,9.16
2022-11-25T15:16:05.998Z,9.10
2022-11-25T15:18:36.833Z,9.14
2022-11-25T15:21:05.907Z,9.13
2022-11-25T15:23:39.377Z,9.10
2022-11-25T15:26:19.257Z,9.03
2022-11-25T15:28:48.339Z,8.98
2022-11-25T15:31:21.173Z,8.96
2022-11-25T15:33:54.933Z,8.89
2022-11-25T15:36:24.809Z,8.85
2022-11-25T15:38:54.867Z,8.79
2022-11-25T15:41:35.405Z,8.71
2022-11-25T15:44:06.351Z,8.69
2022-11-25T15:46:38.008Z,8.64
2022-11-25T15:49:08.963Z,8.62
2022-11-25T15:51:42.937Z,8.58
2022-11-25T15:54:22.498Z,8.52
2022-11-25T15:56:52.791Z,8.43
2022-11-25T15:59:48.126Z,8.35
2022-11-25T16:02:41.082Z,8.24
2022-11-25T16:05:35.782Z,8.20
2022-11-25T16:08:27.252Z,8.10
2022-11-25T16:11:19.323Z,7.98
2022-11-25T16:13:48.802Z,8.00
2022-11-25T16:16:24.157Z,7.92
2022-11-25T16:19:19.415Z,7.88
2022-11-25T16:21:53.799Z,7.86
2022-11-25T16:24:35.227Z,7.75
2022-11-25T16:27:08.772Z,7.81
2022-11-25T16:29:41.003Z,7.77
2022-11-25T16:32:16.194Z,7.76
2022-11-25T16:34:44.954Z,7.76
2022-11-25T16:37:13.844Z,7.77
2022-11-25T16:39:43.446Z,7.77
2022-11-25T16:42:19.959Z,7.76
2022-11-25T16:44:50.087Z,7.77
2022-11-25T16:47:19.980Z,7.78
2022-11-25T16:49:48.417Z,7.77
2022-11-25T16:52:16.632Z,7.75
2022-11-25T16:54:44.823Z,7.73
2022-11-25T16:57:22.034Z,7.74
2022-11-25T16:59:57.230Z,7.78
2022-11-25T17:02:27.760Z,7.80
2022-11-25T17:04:57.306Z,7.77
2022-11-25T17:07:33.932Z,7.74
2022-11-25T17:10:02.901Z,7.75
2022-11-25T17:12:36.195Z,7.74
2022-11-25T17:15:09.036Z,7.74
2022-11-25T17:17:37.691Z,7.68
2022-11-25T17:20:07.943Z,7.69
2022-11-25T17:22:39.367Z,7.69
2022-11-25T17:25:08.955Z,7.67
2022-11-25T17:27:39.094Z,7.69
2022-11-25T17:30:14.476Z,7.68
2022-11-25T17:32:43.416Z,7.69
2022-11-25T17:35:19.062Z,7.66
2022-11-25T17:37:48.033Z,7.66
2022-11-25T17:40:17.479Z,7.66
2022-11-25T17:42:50.170Z,7.64
2022-11-25T17:45:20.568Z,7.63
2022-11-25T17:47:49.281Z,7.63
2022-11-25T17:50:20.078Z,7.59
2022-11-25T17:52:48.502Z,7.63
2022-11-25T17:55:19.764Z,7.53
2022-11-25T17:57:50.360Z,7.58
2022-11-25T18:00:21.267Z,7.56
2022-11-25T18:02:50.731Z,7.58
2022-11-25T18:05:21.075Z,7.56
2022-11-25T18:07:49.971Z,7.55
2022-11-25T18:10:20.307Z,7.55
2022-11-25T18:12:53.752Z,7.54
2022-11-25T18:15:25.181Z,7.56
2022-11-25T18:18:01.655Z,7.55
2022-11-25T18:20:33.068Z,7.55
2022-11-25T18:23:02.375Z,7.55
2022-11-25T18:25:33.014Z,7.56
2022-11-25T18:28:05.381Z,7.56
2022-11-25T18:30:35.474Z,7.59
2022-11-25T18:33:06.396Z,7.56
2022-11-25T18:35:36.865Z,7.58
2022-11-25T18:38:05.812Z,7.56
2022-11-25T18:40:35.269Z,7.59
2022-11-25T18:43:06.118Z,7.55
2022-11-25T18:45:38.122Z,7.57
2022-11-25T18:48:14.721Z,7.55
2022-11-25T18:50:43.797Z,7.57
2022-11-25T18:53:12.154Z,7.57
2022-11-25T18:55:40.570Z,7.55
2022-11-25T18:58:17.021Z,7.56
2022-11-25T19:00:48.520Z,7.55
2022-11-25T19:03:20.380Z,7.56
2022-11-25T19:05:50.078Z,7.55
2022-11-25T19:08:20.061Z,7.55
2022-11-25T19:10:50.590Z,7.58
2022-11-25T19:13:27.138Z,7.55
2022-11-25T19:15:56.281Z,7.56
2022-11-25T19:18:27.379Z,7.53
2022-11-25T19:20:55.935Z,7.52
2022-11-25T19:23:26.310Z,7.49
2022-11-25T19:25:56.070Z,7.52
2022-11-25T19:28:26.153Z,7.52
2022-11-25T19:31:00.016Z,7.51
2022-11-25T19:33:32.184Z,7.51
2022-11-25T19:36:00.941Z,7.51
2022-11-25T19:38:31.340Z,7.50
2022-11-25T19:41:00.053Z,7.51
2022-11-25T19:43:29.861Z,7.49
2022-11-25T19:45:59.305Z,7.49
2022-11-25T19:48:32.168Z,7.52
2022-11-25T19:51:02.343Z,7.53
2022-11-25T19:53:34.176Z,7.52
2022-11-25T19:56:04.756Z,7.51
2022-11-25T19:58:34.999Z,7.53
2022-11-25T20:01:06.270Z,7.52
2022-11-25T20:03:36.851Z,7.54
2022-11-25T20:06:06.423Z,7.55
2022-11-25T20:08:34.763Z,7.54
2022-11-25T20:11:02.806Z,7.54
2022-11-25T20:13:31.059Z,7.59
2022-11-25T20:16:00.767Z,7.58
2022-11-25T20:18:29.424Z,7.62
2022-11-25T20:21:02.339Z,7.61
2022-11-25T20:23:38.787Z,7.62
2022-11-25T20:26:17.738Z,7.65
2022-11-25T20:28:46.654Z,7.66
2022-11-25T20:31:16.671Z,7.66
2022-11-25T20:33:45.297Z,7.64
2022-11-25T20:36:16.831Z,7.65
2022-11-25T20:38:50.502Z,7.65
2022-11-25T20:41:24.378Z,7.68
2022-11-25T20:43:56.645Z,7.70
2022-11-25T20:46:29.504Z,7.70
2022-11-25T20:49:00.601Z,7.73
2022-11-25T20:51:30.138Z,7.76
2022-11-25T20:54:01.006Z,7.78
2022-11-25T20:56:30.143Z,7.81
2022-11-25T20:58:58.713Z,7.83
2022-11-25T21:01:28.358Z,7.86
2022-11-25T21:03:56.973Z,7.92
2022-11-25T21:06:28.676Z,7.93
2022-11-25T21:08:59.455Z,7.94
2022-11-25T21:11:28.350Z,7.97
2022-11-25T21:13:56.843Z,7.99
2022-11-25T21:16:25.743Z,8.02
2022-11-25T21:18:56.007Z,8.05
2022-11-25T21:21:30.921Z,8.08
2022-11-25T21:24:02.417Z,8.10
2022-11-25T21:26:30.857Z,8.11
2022-11-25T21:28:59.516Z,8.10
2022-11-25T21:31:27.928Z,8.15
2022-11-25T21:33:59.910Z,8.17
2022-11-25T21:36:30.496Z,8.19
2022-11-25T21:39:05.043Z,8.18
2022-11-25T21:41:34.097Z,8.19
2022-11-25T21:44:05.492Z,8.20
2022-11-25T21:46:33.928Z,8.20
2022-11-25T21:49:10.448Z,8.19
2022-11-25T21:51:38.906Z,8.19
2022-11-25T21:54:07.699Z,8.19
2022-11-25T21:56:36.157Z,8.20
2022-11-25T21:59:05.769Z,8.18
2022-11-25T22:01:34.288Z,8.18
2022-11-25T22:04:04.534Z,8.16
2022-11-25T22:06:33.083Z,8.13
2022-11-25T22:09:01.606Z,8.11
2022-11-25T22:11:31.819Z,8.07
2022-11-25T22:14:02.280Z,8.08
2022-11-25T22:16:32.777Z,8.04
2022-11-25T22:19:01.438Z,8.05
2022-11-25T22:21:31.701Z,8.06
2022-11-25T22:24:00.362Z,8.10
2022-11-25T22:26:32.178Z,8.13
2022-11-25T22:29:02.572Z,8.20
2022-11-25T22:31:31.230Z,8.27
2022-11-25T22:33:59.510Z,8.34
2022-11-25T22:36:34.546Z,8.41
2022-11-25T22:39:13.988Z,8.46
2022-11-25T22:41:43.612Z,8.55
2022-11-25T22:44:20.557Z,8.59
2022-11-25T22:46:49.984Z,8.66
2022-11-25T22:49:32.110Z,8.67
2022-11-25T22:52:02.355Z,8.67
2022-11-25T22:54:30.812Z,8.70
2022-11-25T22:56:59.186Z,8.67
2022-11-25T22:59:27.784Z,8.72
2022-11-25T23:01:56.615Z,8.76
2022-11-25T23:04:24.998Z,8.78
2022-11-25T23:06:56.086Z,8.82
2022-11-25T23:09:25.983Z,8.88
2022-11-25T23:11:55.451Z,8.94
2022-11-25T23:14:23.948Z,8.96
2022-11-25T23:16:52.412Z,9.00
2022-11-25T23:19:20.815Z,9.02
2022-11-25T23:21:48.832Z,9.00
2022-11-25T23:24:18.471Z,8.99
2022-11-25T23:26:48.571Z,9.01
2022-11-25T23:29:17.202Z,9.02
2022-11-25T23:31:45.551Z,9.04
2022-11-25T23:34:14.109Z,9.02
2022-11-25T23:36:47.979Z,9.05
2022-11-25T23:39:20.451Z,9.06
2022-11-25T23:41:51.382Z,9.10
2022-11-25T23:44:25.064Z,9.12
2022-11-25T23:46:55.499Z,9.17
2022-11-25T23:49:27.052Z,9.20
2022-11-25T23:51:59.582Z,9.23
2022-11-25T23:54:40.286Z,9.24
2022-11-25T23:57:16.188Z,9.22
2022-11-25T23:59:45.162Z,9.21
